Cairns International Airport
YBCS : now visible

Airfield :











YOU CAN JOIN US ON...

 
LOGIN :

Register | Disclaimer

   EN    FR    IT 

 









Legend :    VFR   Marginal VFR   IFR   Intensive IFR   Very Intensive IFR
Visi :
Ceiling :
>= 8 km
>= 3000ft
5 to 8 km
1000 to 3000 ft
1500m to 5 km
500 to 1000 ft
800 to 1500m
200 to 500 ft
< 800m
< 200 ft
Symbols :   Thunderstorms  Fog  Heavy snow  Heavy precipitations  Wind > 20 kt






- Airport Elevation : 10 ft
- IATA code : CNS


YBCS - Cairns International

CURRENT METAR :
  • 280500Z AUTO 08009KT 9999 // NCD 26/16 Q1015 NOSIG

EXPIRED METARs :
  • 280430Z AUTO 09010KT 9999 // NCD 26/15 Q1015 NOSIG
  • 280400Z AUTO 09006KT 9999 // NCD 26/15 Q1015 NOSIG
  • 280330Z AUTO 12007KT 9999 // NCD 26/15 Q1016 NOSIG
  • 280300Z AUTO 12007KT 9999 // SCT042 26/14 Q1016 NOSIG
  • 280230Z AUTO 15005KT 110V200 9999 // SCT042 26/16 Q1017 NOSIG

TAF TAF YBCS
Valid from the 28 at 06:00 until the 29 at 06:00 UTC


280502Z 2806/2906 09010KT 9999 FEW040
FM280800 18006KT 9999 FEW025
FM290100 12012KT 9999 SCT030
YBBB FIR / Oceania



MET'MAP, your aeronautical weather chart ! - Copyright ORBIFLY December 2007 - Disclaimer

ORBIFLY MET'MAP TEAM :

Programming & Development : Alexandra Zaïnal
Concept & original design : Baudouin d'Aumeries
Assistance for programming : Marc-Olivier Méhu
Technical & hardware support : Manuel Goepfert

Contact : metmap@orbifly.com




SOURCES & CREDITS :

   NOAA       Earth
Advisory